MET'MAP v2.0
soon released !

Expected late october,
this new version will be
more efficient, smarter,
and hosted on a brand new
server x3 powerfull...
...and still free !


Not compatible ?
Try the mobile version !

LOG IN : | Subscribe | Disclaimer | Who is Orbifly ? |
ICAO code :
Legend : VFR Marginal VFR IFR Intensive IFR Very Intensive IFR
Visi :
Ceiling :
>= 8 km
>= 3000ft
5 to 8 km
1000 to 3000 ft
1500m to 5 km
500 to 1000 ft
800 to 1500m
200 to 500 ft
< 800m
< 200 ft

METAR - EDDG Münster Osnabrück Int. - 21 Oct 2020 00:42 UTC
Data Sources :     NOAA   


- Airport Elevation : 160 ft
- IATA code : FMO
- No reported NOTAMs.


EDDG - Münster Osnabrück Int.

Latest METAR recorded : 2015/08/11 07:50 EDDG 110750Z VRB02KT 9999 FEW012 BKN250 18/15 Q1018 NOSIG
TAF TAF EDDG
Valid from the 20 at 18:00 until the 21 at 18:00 UTC


201700Z 2018/2118 16006KT 9999 BKN045
TEMPO 2102/2109 RA
BECMG 2110/2112 19012KT
TEMPO 2115/2118 21015G25KT

Source NOAA


MET'MAP, your aeronautical weather chart ! - Copyright ORBIFLY December 2007

Programming & Development : Alexandra Zaïnal
Co-Developer : Marc-Olivier Méhu
Technical & hardware support : Manuel Goepfert
Concept & Financing : Baudouin d'Aumeries